sensor_id;sensor_type;location;lat;lon;timestamp;P1;durP1;ratioP1;P2;durP2;ratioP2
46651;SDS011;32377;52.182;5.398;2024-01-27T00:01:39;16.10;;;4.83;;
46651;SDS011;32377;52.182;5.398;2024-01-27T00:04:05;19.40;;;4.90;;
46651;SDS011;32377;52.182;5.398;2024-01-27T00:06:31;16.73;;;4.80;;
46651;SDS011;32377;52.182;5.398;2024-01-27T00:08:56;19.47;;;4.80;;
46651;SDS011;32377;52.182;5.398;2024-01-27T00:11:22;29.63;;;5.40;;
46651;SDS011;32377;52.182;5.398;2024-01-27T00:13:49;27.30;;;5.20;;
46651;SDS011;32377;52.182;5.398;2024-01-27T00:16:15;25.47;;;5.47;;
46651;SDS011;32377;52.182;5.398;2024-01-27T00:18:41;25.23;;;4.93;;
46651;SDS011;32377;52.182;5.398;2024-01-27T00:21:06;25.40;;;5.27;;
46651;SDS011;32377;52.182;5.398;2024-01-27T00:23:32;30.13;;;6.47;;
46651;SDS011;32377;52.182;5.398;2024-01-27T00:25:59;26.57;;;4.77;;
46651;SDS011;32377;52.182;5.398;2024-01-27T00:28:25;21.03;;;5.40;;
46651;SDS011;32377;52.182;5.398;2024-01-27T00:30:50;23.30;;;5.33;;
46651;SDS011;32377;52.182;5.398;2024-01-27T00:33:16;25.37;;;5.47;;
46651;SDS011;32377;52.182;5.398;2024-01-27T00:35:42;17.27;;;4.93;;
46651;SDS011;32377;52.182;5.398;2024-01-27T00:38:08;16.20;;;4.53;;
46651;SDS011;32377;52.182;5.398;2024-01-27T00:40:33;22.57;;;5.47;;
46651;SDS011;32377;52.182;5.398;2024-01-27T00:42:59;21.30;;;4.87;;
46651;SDS011;32377;52.182;5.398;2024-01-27T00:45:27;26.43;;;5.57;;
46651;SDS011;32377;52.182;5.398;2024-01-27T00:47:55;17.80;;;4.77;;
46651;SDS011;32377;52.182;5.398;2024-01-27T00:50:21;25.27;;;5.03;;
46651;SDS011;32377;52.182;5.398;2024-01-27T00:52:47;22.90;;;5.90;;
46651;SDS011;32377;52.182;5.398;2024-01-27T00:55:13;25.93;;;5.57;;
46651;SDS011;32377;52.182;5.398;2024-01-27T00:57:39;20.57;;;4.77;;
46651;SDS011;32377;52.182;5.398;2024-01-27T01:00:05;28.63;;;6.57;;
46651;SDS011;32377;52.182;5.398;2024-01-27T01:02:32;18.97;;;4.63;;
46651;SDS011;32377;52.182;5.398;2024-01-27T01:04:57;23.63;;;5.83;;
46651;SDS011;32377;52.182;5.398;2024-01-27T01:07:23;22.83;;;5.20;;
46651;SDS011;32377;52.182;5.398;2024-01-27T01:09:49;23.03;;;5.23;;
46651;SDS011;32377;52.182;5.398;2024-01-27T01:12:14;25.77;;;5.17;;
46651;SDS011;32377;52.182;5.398;2024-01-27T01:14:40;27.23;;;4.90;;
46651;SDS011;32377;52.182;5.398;2024-01-27T01:17:06;26.50;;;5.00;;
46651;SDS011;32377;52.182;5.398;2024-01-27T01:19:32;26.50;;;6.77;;
46651;SDS011;32377;52.182;5.398;2024-01-27T01:21:58;19.57;;;4.90;;
46651;SDS011;32377;52.182;5.398;2024-01-27T01:24:23;33.13;;;5.17;;
46651;SDS011;32377;52.182;5.398;2024-01-27T01:26:49;26.57;;;4.97;;
46651;SDS011;32377;52.182;5.398;2024-01-27T01:29:14;25.53;;;5.83;;
46651;SDS011;32377;52.182;5.398;2024-01-27T01:31:43;24.57;;;6.60;;
46651;SDS011;32377;52.182;5.398;2024-01-27T01:34:08;22.63;;;4.60;;
46651;SDS011;32377;52.182;5.398;2024-01-27T01:36:34;21.07;;;4.70;;
46651;SDS011;32377;52.182;5.398;2024-01-27T01:39:00;27.13;;;5.37;;
46651;SDS011;32377;52.182;5.398;2024-01-27T01:41:25;28.57;;;4.97;;
46651;SDS011;32377;52.182;5.398;2024-01-27T01:43:51;25.80;;;4.53;;
46651;SDS011;32377;52.182;5.398;2024-01-27T01:46:17;18.43;;;4.47;;
46651;SDS011;32377;52.182;5.398;2024-01-27T01:48:43;27.63;;;5.50;;
46651;SDS011;32377;52.182;5.398;2024-01-27T01:51:09;23.37;;;4.60;;
46651;SDS011;32377;52.182;5.398;2024-01-27T01:53:35;33.90;;;5.93;;
46651;SDS011;32377;52.182;5.398;2024-01-27T01:56:01;21.30;;;4.10;;
46651;SDS011;32377;52.182;5.398;2024-01-27T01:58:27;31.20;;;5.00;;
46651;SDS011;32377;52.182;5.398;2024-01-27T02:00:59;27.47;;;5.07;;
46651;SDS011;32377;52.182;5.398;2024-01-27T02:03:25;24.27;;;4.47;;
46651;SDS011;32377;52.182;5.398;2024-01-27T02:05:51;22.07;;;4.20;;
46651;SDS011;32377;52.182;5.398;2024-01-27T02:08:17;24.33;;;4.20;;
46651;SDS011;32377;52.182;5.398;2024-01-27T02:10:42;24.30;;;4.80;;
46651;SDS011;32377;52.182;5.398;2024-01-27T02:13:21;24.13;;;4.43;;
46651;SDS011;32377;52.182;5.398;2024-01-27T02:15:48;30.93;;;4.53;;
46651;SDS011;32377;52.182;5.398;2024-01-27T02:18:15;15.97;;;4.03;;
46651;SDS011;32377;52.182;5.398;2024-01-27T02:20:41;29.97;;;4.87;;
46651;SDS011;32377;52.182;5.398;2024-01-27T02:23:07;24.97;;;4.30;;
46651;SDS011;32377;52.182;5.398;2024-01-27T02:25:33;19.70;;;4.33;;
46651;SDS011;32377;52.182;5.398;2024-01-27T02:27:59;26.93;;;4.43;;
46651;SDS011;32377;52.182;5.398;2024-01-27T02:30:25;26.97;;;4.77;;
46651;SDS011;32377;52.182;5.398;2024-01-27T02:32:51;20.30;;;4.33;;
46651;SDS011;32377;52.182;5.398;2024-01-27T02:35:17;25.00;;;4.40;;
46651;SDS011;32377;52.182;5.398;2024-01-27T02:37:42;28.17;;;4.00;;
46651;SDS011;32377;52.182;5.398;2024-01-27T02:40:08;22.73;;;4.43;;
46651;SDS011;32377;52.182;5.398;2024-01-27T02:42:35;22.23;;;4.33;;
46651;SDS011;32377;52.182;5.398;2024-01-27T02:45:00;28.00;;;4.97;;
46651;SDS011;32377;52.182;5.398;2024-01-27T02:47:27;25.10;;;4.07;;
46651;SDS011;32377;52.182;5.398;2024-01-27T02:49:52;21.90;;;4.17;;
46651;SDS011;32377;52.182;5.398;2024-01-27T02:52:18;29.50;;;5.13;;
46651;SDS011;32377;52.182;5.398;2024-01-27T02:54:44;25.47;;;4.50;;
46651;SDS011;32377;52.182;5.398;2024-01-27T02:57:09;24.73;;;3.90;;
46651;SDS011;32377;52.182;5.398;2024-01-27T02:59:35;25.83;;;5.47;;
46651;SDS011;32377;52.182;5.398;2024-01-27T03:02:01;26.00;;;4.00;;
46651;SDS011;32377;52.182;5.398;2024-01-27T03:04:26;13.83;;;3.23;;
46651;SDS011;32377;52.182;5.398;2024-01-27T03:06:52;29.93;;;4.60;;
46651;SDS011;32377;52.182;5.398;2024-01-27T03:09:18;21.20;;;4.27;;
46651;SDS011;32377;52.182;5.398;2024-01-27T03:11:43;25.77;;;4.17;;
46651;SDS011;32377;52.182;5.398;2024-01-27T03:14:09;22.77;;;3.90;;
46651;SDS011;32377;52.182;5.398;2024-01-27T03:16:35;21.13;;;3.80;;
46651;SDS011;32377;52.182;5.398;2024-01-27T03:19:01;28.13;;;4.27;;
46651;SDS011;32377;52.182;5.398;2024-01-27T03:21:27;20.47;;;3.43;;
46651;SDS011;32377;52.182;5.398;2024-01-27T03:23:52;24.37;;;3.80;;
46651;SDS011;32377;52.182;5.398;2024-01-27T03:26:18;29.37;;;4.30;;
46651;SDS011;32377;52.182;5.398;2024-01-27T03:28:44;24.07;;;4.57;;
46651;SDS011;32377;52.182;5.398;2024-01-27T03:31:09;28.83;;;4.13;;
46651;SDS011;32377;52.182;5.398;2024-01-27T03:33:35;18.30;;;4.27;;
46651;SDS011;32377;52.182;5.398;2024-01-27T03:36:00;26.97;;;4.13;;
46651;SDS011;32377;52.182;5.398;2024-01-27T03:38:26;40.27;;;5.20;;
46651;SDS011;32377;52.182;5.398;2024-01-27T03:40:52;23.73;;;3.97;;
46651;SDS011;32377;52.182;5.398;2024-01-27T03:43:17;24.27;;;4.00;;
46651;SDS011;32377;52.182;5.398;2024-01-27T03:45:43;21.03;;;4.03;;
46651;SDS011;32377;52.182;5.398;2024-01-27T03:48:08;17.30;;;3.80;;
46651;SDS011;32377;52.182;5.398;2024-01-27T03:50:34;26.17;;;4.63;;
46651;SDS011;32377;52.182;5.398;2024-01-27T03:52:59;18.97;;;4.37;;
46651;SDS011;32377;52.182;5.398;2024-01-27T03:55:25;28.83;;;4.90;;
46651;SDS011;32377;52.182;5.398;2024-01-27T03:57:50;19.60;;;4.03;;
46651;SDS011;32377;52.182;5.398;2024-01-27T04:00:16;17.93;;;4.80;;
46651;SDS011;32377;52.182;5.398;2024-01-27T04:02:42;17.10;;;4.90;;
46651;SDS011;32377;52.182;5.398;2024-01-27T04:05:07;21.17;;;4.83;;
46651;SDS011;32377;52.182;5.398;2024-01-27T04:07:33;23.90;;;4.87;;
46651;SDS011;32377;52.182;5.398;2024-01-27T04:09:59;24.27;;;5.27;;
46651;SDS011;32377;52.182;5.398;2024-01-27T04:12:24;20.13;;;4.67;;
46651;SDS011;32377;52.182;5.398;2024-01-27T04:14:50;17.90;;;4.43;;
46651;SDS011;32377;52.182;5.398;2024-01-27T04:17:16;30.90;;;5.30;;
46651;SDS011;32377;52.182;5.398;2024-01-27T04:19:41;19.87;;;5.70;;
46651;SDS011;32377;52.182;5.398;2024-01-27T04:22:07;29.97;;;5.50;;
46651;SDS011;32377;52.182;5.398;2024-01-27T04:24:32;32.17;;;5.87;;
46651;SDS011;32377;52.182;5.398;2024-01-27T04:26:58;22.70;;;5.70;;
46651;SDS011;32377;52.182;5.398;2024-01-27T04:29:24;22.03;;;6.57;;
46651;SDS011;32377;52.182;5.398;2024-01-27T04:31:50;33.17;;;7.47;;
46651;SDS011;32377;52.182;5.398;2024-01-27T04:34:15;25.63;;;6.63;;
46651;SDS011;32377;52.182;5.398;2024-01-27T04:36:41;21.20;;;6.23;;
46651;SDS011;32377;52.182;5.398;2024-01-27T04:39:06;40.03;;;9.77;;
46651;SDS011;32377;52.182;5.398;2024-01-27T04:41:32;23.40;;;6.87;;
46651;SDS011;32377;52.182;5.398;2024-01-27T04:43:57;26.30;;;8.07;;
46651;SDS011;32377;52.182;5.398;2024-01-27T04:46:24;26.43;;;6.57;;
46651;SDS011;32377;52.182;5.398;2024-01-27T04:48:49;24.73;;;7.07;;
46651;SDS011;32377;52.182;5.398;2024-01-27T04:51:15;19.80;;;8.03;;
46651;SDS011;32377;52.182;5.398;2024-01-27T04:53:40;32.03;;;8.43;;
46651;SDS011;32377;52.182;5.398;2024-01-27T04:59:22;27.90;;;9.07;;
46651;SDS011;32377;52.182;5.398;2024-01-27T05:01:51;28.83;;;8.90;;
46651;SDS011;32377;52.182;5.398;2024-01-27T05:04:16;26.50;;;9.57;;
46651;SDS011;32377;52.182;5.398;2024-01-27T05:06:45;24.70;;;10.13;;
46651;SDS011;32377;52.182;5.398;2024-01-27T05:09:11;35.97;;;10.40;;
46651;SDS011;32377;52.182;5.398;2024-01-27T05:11:37;38.17;;;11.13;;
46651;SDS011;32377;52.182;5.398;2024-01-27T05:14:02;28.07;;;11.17;;
46651;SDS011;32377;52.182;5.398;2024-01-27T05:16:28;38.03;;;11.60;;
46651;SDS011;32377;52.182;5.398;2024-01-27T05:18:54;36.80;;;10.37;;
46651;SDS011;32377;52.182;5.398;2024-01-27T05:21:19;29.13;;;10.53;;
46651;SDS011;32377;52.182;5.398;2024-01-27T05:23:45;39.23;;;11.30;;
46651;SDS011;32377;52.182;5.398;2024-01-27T05:26:10;29.93;;;11.90;;
46651;SDS011;32377;52.182;5.398;2024-01-27T05:28:39;29.03;;;10.87;;
46651;SDS011;32377;52.182;5.398;2024-01-27T05:31:08;27.70;;;11.60;;
46651;SDS011;32377;52.182;5.398;2024-01-27T05:33:37;39.17;;;11.97;;
46651;SDS011;32377;52.182;5.398;2024-01-27T05:36:04;28.57;;;11.07;;
46651;SDS011;32377;52.182;5.398;2024-01-27T05:38:30;31.57;;;10.83;;
46651;SDS011;32377;52.182;5.398;2024-01-27T05:40:58;44.93;;;14.50;;
46651;SDS011;32377;52.182;5.398;2024-01-27T05:43:27;23.73;;;10.97;;
46651;SDS011;32377;52.182;5.398;2024-01-27T05:45:53;27.50;;;11.67;;
46651;SDS011;32377;52.182;5.398;2024-01-27T05:48:18;27.87;;;11.27;;
46651;SDS011;32377;52.182;5.398;2024-01-27T05:50:44;32.77;;;12.17;;
46651;SDS011;32377;52.182;5.398;2024-01-27T05:53:21;28.90;;;11.10;;
46651;SDS011;32377;52.182;5.398;2024-01-27T05:55:47;31.67;;;13.63;;
46651;SDS011;32377;52.182;5.398;2024-01-27T05:58:12;36.93;;;13.10;;
46651;SDS011;32377;52.182;5.398;2024-01-27T06:00:38;41.70;;;12.40;;
46651;SDS011;32377;52.182;5.398;2024-01-27T06:03:03;30.10;;;12.97;;
46651;SDS011;32377;52.182;5.398;2024-01-27T06:05:29;36.07;;;13.20;;
46651;SDS011;32377;52.182;5.398;2024-01-27T06:07:55;36.63;;;12.93;;
46651;SDS011;32377;52.182;5.398;2024-01-27T06:10:20;39.90;;;13.27;;
46651;SDS011;32377;52.182;5.398;2024-01-27T06:12:46;39.23;;;13.37;;
46651;SDS011;32377;52.182;5.398;2024-01-27T06:15:12;33.93;;;13.63;;
46651;SDS011;32377;52.182;5.398;2024-01-27T06:17:40;28.17;;;12.37;;
46651;SDS011;32377;52.182;5.398;2024-01-27T06:20:06;30.60;;;14.27;;
46651;SDS011;32377;52.182;5.398;2024-01-27T06:22:32;30.50;;;14.60;;
46651;SDS011;32377;52.182;5.398;2024-01-27T06:24:57;42.50;;;13.57;;
46651;SDS011;32377;52.182;5.398;2024-01-27T06:27:23;28.83;;;13.10;;
46651;SDS011;32377;52.182;5.398;2024-01-27T06:29:49;34.83;;;14.43;;
46651;SDS011;32377;52.182;5.398;2024-01-27T06:32:14;34.30;;;13.80;;
46651;SDS011;32377;52.182;5.398;2024-01-27T06:34:40;47.40;;;14.80;;
46651;SDS011;32377;52.182;5.398;2024-01-27T06:37:06;34.40;;;14.50;;
46651;SDS011;32377;52.182;5.398;2024-01-27T06:39:32;33.13;;;14.23;;
46651;SDS011;32377;52.182;5.398;2024-01-27T06:41:58;36.60;;;15.57;;
46651;SDS011;32377;52.182;5.398;2024-01-27T06:44:23;38.73;;;15.23;;
46651;SDS011;32377;52.182;5.398;2024-01-27T06:46:49;34.07;;;14.10;;
46651;SDS011;32377;52.182;5.398;2024-01-27T06:49:15;37.57;;;13.33;;
46651;SDS011;32377;52.182;5.398;2024-01-27T06:51:41;35.50;;;14.03;;
46651;SDS011;32377;52.182;5.398;2024-01-27T06:54:08;30.60;;;14.33;;
46651;SDS011;32377;52.182;5.398;2024-01-27T06:56:34;39.20;;;14.57;;
46651;SDS011;32377;52.182;5.398;2024-01-27T06:58:59;29.23;;;13.80;;
46651;SDS011;32377;52.182;5.398;2024-01-27T07:01:25;40.90;;;15.27;;
46651;SDS011;32377;52.182;5.398;2024-01-27T07:03:51;42.47;;;15.33;;
46651;SDS011;32377;52.182;5.398;2024-01-27T07:06:16;44.07;;;14.83;;
46651;SDS011;32377;52.182;5.398;2024-01-27T07:08:42;38.00;;;15.93;;
46651;SDS011;32377;52.182;5.398;2024-01-27T07:11:07;39.67;;;15.53;;
46651;SDS011;32377;52.182;5.398;2024-01-27T07:13:33;36.10;;;15.70;;
46651;SDS011;32377;52.182;5.398;2024-01-27T07:15:59;35.23;;;15.97;;
46651;SDS011;32377;52.182;5.398;2024-01-27T07:18:24;33.57;;;14.80;;
46651;SDS011;32377;52.182;5.398;2024-01-27T07:20:50;37.93;;;16.10;;
46651;SDS011;32377;52.182;5.398;2024-01-27T07:23:16;39.30;;;15.20;;
46651;SDS011;32377;52.182;5.398;2024-01-27T07:25:42;33.90;;;16.00;;
46651;SDS011;32377;52.182;5.398;2024-01-27T07:28:08;38.40;;;16.40;;
46651;SDS011;32377;52.182;5.398;2024-01-27T07:30:34;48.70;;;17.70;;
46651;SDS011;32377;52.182;5.398;2024-01-27T07:33:00;30.30;;;16.23;;
46651;SDS011;32377;52.182;5.398;2024-01-27T07:35:25;35.20;;;15.73;;
46651;SDS011;32377;52.182;5.398;2024-01-27T07:37:51;33.03;;;14.70;;
46651;SDS011;32377;52.182;5.398;2024-01-27T07:40:16;40.17;;;17.67;;
46651;SDS011;32377;52.182;5.398;2024-01-27T07:42:42;38.20;;;16.53;;
46651;SDS011;32377;52.182;5.398;2024-01-27T07:45:08;42.50;;;16.97;;
46651;SDS011;32377;52.182;5.398;2024-01-27T07:47:34;44.90;;;16.97;;
46651;SDS011;32377;52.182;5.398;2024-01-27T07:49:59;43.97;;;17.93;;
46651;SDS011;32377;52.182;5.398;2024-01-27T07:52:25;36.13;;;17.27;;
46651;SDS011;32377;52.182;5.398;2024-01-27T07:54:50;38.73;;;17.20;;
46651;SDS011;32377;52.182;5.398;2024-01-27T07:57:16;36.83;;;16.10;;
46651;SDS011;32377;52.182;5.398;2024-01-27T07:59:42;40.00;;;16.93;;
46651;SDS011;32377;52.182;5.398;2024-01-27T08:02:07;38.40;;;17.57;;
46651;SDS011;32377;52.182;5.398;2024-01-27T08:04:33;39.17;;;16.90;;
46651;SDS011;32377;52.182;5.398;2024-01-27T08:07:02;41.07;;;18.27;;
46651;SDS011;32377;52.182;5.398;2024-01-27T08:09:34;46.73;;;19.00;;
46651;SDS011;32377;52.182;5.398;2024-01-27T08:12:00;35.83;;;16.93;;
46651;SDS011;32377;52.182;5.398;2024-01-27T08:14:26;40.00;;;17.37;;
46651;SDS011;32377;52.182;5.398;2024-01-27T08:16:55;35.40;;;17.70;;
46651;SDS011;32377;52.182;5.398;2024-01-27T08:19:23;42.37;;;18.50;;
46651;SDS011;32377;52.182;5.398;2024-01-27T08:21:48;47.07;;;17.53;;
46651;SDS011;32377;52.182;5.398;2024-01-27T08:24:14;41.10;;;17.60;;
46651;SDS011;32377;52.182;5.398;2024-01-27T08:26:40;36.93;;;17.10;;
46651;SDS011;32377;52.182;5.398;2024-01-27T08:29:07;38.97;;;17.97;;
46651;SDS011;32377;52.182;5.398;2024-01-27T08:31:35;35.13;;;17.70;;
46651;SDS011;32377;52.182;5.398;2024-01-27T08:34:03;40.30;;;17.80;;
46651;SDS011;32377;52.182;5.398;2024-01-27T08:36:28;44.53;;;18.30;;
46651;SDS011;32377;52.182;5.398;2024-01-27T08:38:54;41.77;;;17.00;;
46651;SDS011;32377;52.182;5.398;2024-01-27T08:41:20;34.17;;;16.00;;
46651;SDS011;32377;52.182;5.398;2024-01-27T08:43:45;39.50;;;16.87;;
46651;SDS011;32377;52.182;5.398;2024-01-27T08:46:11;42.27;;;16.93;;
46651;SDS011;32377;52.182;5.398;2024-01-27T08:48:38;44.30;;;17.90;;
46651;SDS011;32377;52.182;5.398;2024-01-27T08:51:08;40.27;;;16.37;;
46651;SDS011;32377;52.182;5.398;2024-01-27T08:53:37;33.63;;;16.30;;
46651;SDS011;32377;52.182;5.398;2024-01-27T08:56:03;45.90;;;17.13;;
46651;SDS011;32377;52.182;5.398;2024-01-27T08:58:29;38.50;;;16.60;;
46651;SDS011;32377;52.182;5.398;2024-01-27T09:00:56;36.97;;;16.27;;
46651;SDS011;32377;52.182;5.398;2024-01-27T09:03:21;33.15;;;15.63;;
46651;SDS011;32377;52.182;5.398;2024-01-27T09:05:48;33.50;;;14.67;;
46651;SDS011;32377;52.182;5.398;2024-01-27T09:08:15;33.45;;;15.43;;
46651;SDS011;32377;52.182;5.398;2024-01-27T09:10:42;33.42;;;14.52;;
46651;SDS011;32377;52.182;5.398;2024-01-27T09:13:07;44.25;;;14.80;;
46651;SDS011;32377;52.182;5.398;2024-01-27T09:15:33;26.38;;;12.75;;
46651;SDS011;32377;52.182;5.398;2024-01-27T09:17:58;26.67;;;14.00;;
46651;SDS011;32377;52.182;5.398;2024-01-27T09:20:24;34.20;;;13.15;;
46651;SDS011;32377;52.182;5.398;2024-01-27T09:22:50;37.93;;;13.07;;
46651;SDS011;32377;52.182;5.398;2024-01-27T09:25:16;26.63;;;13.10;;
46651;SDS011;32377;52.182;5.398;2024-01-27T09:27:41;29.77;;;13.20;;
46651;SDS011;32377;52.182;5.398;2024-01-27T09:30:07;26.00;;;12.82;;
46651;SDS011;32377;52.182;5.398;2024-01-27T09:32:33;34.03;;;12.40;;
46651;SDS011;32377;52.182;5.398;2024-01-27T09:34:59;36.08;;;13.40;;
46651;SDS011;32377;52.182;5.398;2024-01-27T09:37:24;31.33;;;12.95;;
46651;SDS011;32377;52.182;5.398;2024-01-27T09:39:50;32.80;;;13.10;;
46651;SDS011;32377;52.182;5.398;2024-01-27T09:42:16;35.28;;;13.02;;
46651;SDS011;32377;52.182;5.398;2024-01-27T09:44:45;36.10;;;12.80;;
46651;SDS011;32377;52.182;5.398;2024-01-27T09:47:14;28.75;;;12.23;;
46651;SDS011;32377;52.182;5.398;2024-01-27T09:49:40;37.47;;;13.50;;
46651;SDS011;32377;52.182;5.398;2024-01-27T09:52:07;31.08;;;12.18;;
46651;SDS011;32377;52.182;5.398;2024-01-27T09:54:33;34.15;;;12.52;;
46651;SDS011;32377;52.182;5.398;2024-01-27T09:57:00;29.00;;;12.20;;
46651;SDS011;32377;52.182;5.398;2024-01-27T09:59:26;32.92;;;13.18;;
46651;SDS011;32377;52.182;5.398;2024-01-27T10:01:52;36.10;;;13.30;;
46651;SDS011;32377;52.182;5.398;2024-01-27T10:04:19;33.03;;;12.90;;
46651;SDS011;32377;52.182;5.398;2024-01-27T10:06:47;36.15;;;13.35;;
46651;SDS011;32377;52.182;5.398;2024-01-27T10:09:15;35.45;;;12.93;;
46651;SDS011;32377;52.182;5.398;2024-01-27T10:11:42;29.33;;;12.40;;
46651;SDS011;32377;52.182;5.398;2024-01-27T10:14:11;31.67;;;12.60;;
46651;SDS011;32377;52.182;5.398;2024-01-27T10:16:40;34.22;;;12.30;;
46651;SDS011;32377;52.182;5.398;2024-01-27T10:19:08;35.85;;;13.77;;
46651;SDS011;32377;52.182;5.398;2024-01-27T10:21:40;37.95;;;12.70;;
46651;SDS011;32377;52.182;5.398;2024-01-27T10:24:06;31.60;;;12.23;;
46651;SDS011;32377;52.182;5.398;2024-01-27T10:26:32;29.00;;;11.38;;
46651;SDS011;32377;52.182;5.398;2024-01-27T10:28:58;29.45;;;11.65;;
46651;SDS011;32377;52.182;5.398;2024-01-27T10:31:27;27.60;;;11.90;;
46651;SDS011;32377;52.182;5.398;2024-01-27T10:33:54;28.80;;;12.20;;
46651;SDS011;32377;52.182;5.398;2024-01-27T10:36:21;30.95;;;11.50;;
46651;SDS011;32377;52.182;5.398;2024-01-27T10:38:47;30.33;;;12.18;;
46651;SDS011;32377;52.182;5.398;2024-01-27T10:41:20;25.10;;;11.27;;
46651;SDS011;32377;52.182;5.398;2024-01-27T10:43:52;32.92;;;12.02;;
46651;SDS011;32377;52.182;5.398;2024-01-27T10:46:21;27.98;;;11.18;;
46651;SDS011;32377;52.182;5.398;2024-01-27T10:48:51;26.08;;;11.50;;
46651;SDS011;32377;52.182;5.398;2024-01-27T10:51:23;34.08;;;11.07;;
46651;SDS011;32377;52.182;5.398;2024-01-27T10:54:00;36.92;;;11.38;;
46651;SDS011;32377;52.182;5.398;2024-01-27T10:59:22;33.63;;;11.10;;
46651;SDS011;32377;52.182;5.398;2024-01-27T11:01:49;34.45;;;11.40;;
46651;SDS011;32377;52.182;5.398;2024-01-27T11:04:18;26.83;;;9.55;;
46651;SDS011;32377;52.182;5.398;2024-01-27T11:06:45;29.35;;;9.70;;
46651;SDS011;32377;52.182;5.398;2024-01-27T11:09:13;35.97;;;12.90;;
46651;SDS011;32377;52.182;5.398;2024-01-27T11:11:39;25.38;;;9.82;;
46651;SDS011;32377;52.182;5.398;2024-01-27T11:14:07;27.67;;;10.35;;
46651;SDS011;32377;52.182;5.398;2024-01-27T11:16:34;25.90;;;9.90;;
46651;SDS011;32377;52.182;5.398;2024-01-27T11:19:00;31.58;;;10.32;;
46651;SDS011;32377;52.182;5.398;2024-01-27T11:21:27;25.90;;;8.85;;
46651;SDS011;32377;52.182;5.398;2024-01-27T11:23:52;34.90;;;10.13;;
46651;SDS011;32377;52.182;5.398;2024-01-27T11:26:21;32.13;;;10.85;;
46651;SDS011;32377;52.182;5.398;2024-01-27T11:28:51;19.42;;;9.20;;
46651;SDS011;32377;52.182;5.398;2024-01-27T11:31:17;27.38;;;9.05;;
46651;SDS011;32377;52.182;5.398;2024-01-27T11:33:46;28.30;;;9.85;;
46651;SDS011;32377;52.182;5.398;2024-01-27T11:36:23;37.67;;;9.82;;
46651;SDS011;32377;52.182;5.398;2024-01-27T11:38:49;29.10;;;9.48;;
46651;SDS011;32377;52.182;5.398;2024-01-27T11:41:25;29.77;;;8.55;;
46651;SDS011;32377;52.182;5.398;2024-01-27T11:43:56;19.65;;;8.55;;
46651;SDS011;32377;52.182;5.398;2024-01-27T11:46:25;27.90;;;8.82;;
46651;SDS011;32377;52.182;5.398;2024-01-27T11:48:50;27.20;;;8.85;;
46651;SDS011;32377;52.182;5.398;2024-01-27T11:51:17;24.60;;;8.50;;
46651;SDS011;32377;52.182;5.398;2024-01-27T11:53:44;25.73;;;9.07;;
46651;SDS011;32377;52.182;5.398;2024-01-27T11:56:10;25.00;;;8.32;;
46651;SDS011;32377;52.182;5.398;2024-01-27T11:58:36;24.60;;;9.15;;
46651;SDS011;32377;52.182;5.398;2024-01-27T12:01:01;27.85;;;8.93;;
46651;SDS011;32377;52.182;5.398;2024-01-27T12:03:27;20.95;;;8.18;;
46651;SDS011;32377;52.182;5.398;2024-01-27T12:05:54;20.05;;;7.45;;
46651;SDS011;32377;52.182;5.398;2024-01-27T12:08:20;22.40;;;8.45;;
46651;SDS011;32377;52.182;5.398;2024-01-27T12:10:46;28.98;;;8.13;;
46651;SDS011;32377;52.182;5.398;2024-01-27T12:13:11;22.58;;;8.20;;
46651;SDS011;32377;52.182;5.398;2024-01-27T12:15:37;22.70;;;6.68;;
46651;SDS011;32377;52.182;5.398;2024-01-27T12:18:06;16.88;;;6.80;;
46651;SDS011;32377;52.182;5.398;2024-01-27T12:20:32;25.90;;;7.45;;
46651;SDS011;32377;52.182;5.398;2024-01-27T12:23:04;26.02;;;7.10;;
46651;SDS011;32377;52.182;5.398;2024-01-27T12:25:30;20.90;;;7.30;;
46651;SDS011;32377;52.182;5.398;2024-01-27T12:27:56;31.23;;;7.72;;
46651;SDS011;32377;52.182;5.398;2024-01-27T12:30:26;17.48;;;6.00;;
46651;SDS011;32377;52.182;5.398;2024-01-27T12:32:52;20.38;;;6.75;;
46651;SDS011;32377;52.182;5.398;2024-01-27T12:35:18;23.90;;;6.45;;
46651;SDS011;32377;52.182;5.398;2024-01-27T12:37:43;23.58;;;6.43;;
46651;SDS011;32377;52.182;5.398;2024-01-27T12:40:19;23.83;;;6.38;;
46651;SDS011;32377;52.182;5.398;2024-01-27T12:42:45;21.60;;;7.65;;
46651;SDS011;32377;52.182;5.398;2024-01-27T12:45:11;16.35;;;6.13;;
46651;SDS011;32377;52.182;5.398;2024-01-27T12:47:37;19.33;;;6.22;;
46651;SDS011;32377;52.182;5.398;2024-01-27T12:50:03;21.50;;;6.07;;
46651;SDS011;32377;52.182;5.398;2024-01-27T12:52:29;23.35;;;5.88;;
46651;SDS011;32377;52.182;5.398;2024-01-27T12:54:55;27.30;;;6.65;;
46651;SDS011;32377;52.182;5.398;2024-01-27T12:57:20;17.52;;;5.82;;
46651;SDS011;32377;52.182;5.398;2024-01-27T12:59:46;36.15;;;7.03;;
46651;SDS011;32377;52.182;5.398;2024-01-27T13:02:12;23.45;;;6.53;;
46651;SDS011;32377;52.182;5.398;2024-01-27T13:04:38;23.15;;;5.65;;
46651;SDS011;32377;52.182;5.398;2024-01-27T13:07:04;17.90;;;6.28;;
46651;SDS011;32377;52.182;5.398;2024-01-27T13:09:29;23.67;;;6.50;;
46651;SDS011;32377;52.182;5.398;2024-01-27T13:11:55;19.13;;;7.15;;
46651;SDS011;32377;52.182;5.398;2024-01-27T13:14:20;18.98;;;6.45;;
46651;SDS011;32377;52.182;5.398;2024-01-27T13:16:47;23.90;;;8.52;;
46651;SDS011;32377;52.182;5.398;2024-01-27T13:19:13;16.35;;;6.40;;
46651;SDS011;32377;52.182;5.398;2024-01-27T13:21:38;26.95;;;8.85;;
46651;SDS011;32377;52.182;5.398;2024-01-27T13:24:05;25.25;;;6.80;;
46651;SDS011;32377;52.182;5.398;2024-01-27T13:26:33;29.02;;;8.50;;
46651;SDS011;32377;52.182;5.398;2024-01-27T13:29:03;21.15;;;6.43;;
46651;SDS011;32377;52.182;5.398;2024-01-27T13:31:32;17.27;;;5.72;;
46651;SDS011;32377;52.182;5.398;2024-01-27T13:33:57;26.73;;;6.40;;
46651;SDS011;32377;52.182;5.398;2024-01-27T13:36:24;20.42;;;7.10;;
46651;SDS011;32377;52.182;5.398;2024-01-27T13:38:51;17.75;;;5.93;;
46651;SDS011;32377;52.182;5.398;2024-01-27T13:41:17;21.95;;;6.35;;
46651;SDS011;32377;52.182;5.398;2024-01-27T13:43:43;19.83;;;5.28;;
46651;SDS011;32377;52.182;5.398;2024-01-27T13:46:08;24.77;;;6.25;;
46651;SDS011;32377;52.182;5.398;2024-01-27T13:48:34;19.45;;;6.47;;
46651;SDS011;32377;52.182;5.398;2024-01-27T13:51:00;18.85;;;6.05;;
46651;SDS011;32377;52.182;5.398;2024-01-27T13:53:25;24.88;;;5.90;;
46651;SDS011;32377;52.182;5.398;2024-01-27T13:55:51;22.55;;;5.68;;
46651;SDS011;32377;52.182;5.398;2024-01-27T13:58:18;27.92;;;5.78;;
46651;SDS011;32377;52.182;5.398;2024-01-27T14:00:43;19.60;;;5.93;;
46651;SDS011;32377;52.182;5.398;2024-01-27T14:03:09;21.90;;;5.57;;
46651;SDS011;32377;52.182;5.398;2024-01-27T14:05:35;25.63;;;6.57;;
46651;SDS011;32377;52.182;5.398;2024-01-27T14:08:00;17.10;;;5.82;;
46651;SDS011;32377;52.182;5.398;2024-01-27T14:10:26;20.23;;;5.55;;
46651;SDS011;32377;52.182;5.398;2024-01-27T14:12:52;20.73;;;6.03;;
46651;SDS011;32377;52.182;5.398;2024-01-27T14:15:18;27.33;;;7.07;;
46651;SDS011;32377;52.182;5.398;2024-01-27T14:17:43;21.58;;;6.10;;
46651;SDS011;32377;52.182;5.398;2024-01-27T14:20:10;30.92;;;10.02;;
46651;SDS011;32377;52.182;5.398;2024-01-27T14:22:37;31.70;;;6.90;;
46651;SDS011;32377;52.182;5.398;2024-01-27T14:25:03;24.30;;;6.80;;
46651;SDS011;32377;52.182;5.398;2024-01-27T14:27:29;30.45;;;7.05;;
46651;SDS011;32377;52.182;5.398;2024-01-27T14:29:55;24.65;;;6.47;;